sensor_id;sensor_type;location;lat;lon;timestamp;pressure;altitude;pressure_sealevel;temperature;humidity
28448;BME280;15675;52.870;-1.416;2023-03-03T00:01:15;102406.19;;;5.92;96.29
28448;BME280;15675;52.870;-1.416;2023-03-03T00:03:41;102405.22;;;5.72;96.27
28448;BME280;15675;52.870;-1.416;2023-03-03T00:06:09;102411.34;;;5.92;96.76
28448;BME280;15675;52.870;-1.416;2023-03-03T00:08:35;102407.56;;;5.85;97.38
28448;BME280;15675;52.870;-1.416;2023-03-03T00:11:01;102406.84;;;5.88;97.16
28448;BME280;15675;52.870;-1.416;2023-03-03T00:13:31;102410.91;;;5.83;97.08
28448;BME280;15675;52.870;-1.416;2023-03-03T00:16:30;102408.06;;;6.13;97.26
28448;BME280;15675;52.870;-1.416;2023-03-03T00:18:57;102414.53;;;5.70;96.49
28448;BME280;15675;52.870;-1.416;2023-03-03T00:23:50;102413.38;;;5.81;95.89
28448;BME280;15675;52.870;-1.416;2023-03-03T00:26:30;102406.69;;;6.01;95.48
28448;BME280;15675;52.870;-1.416;2023-03-03T00:28:58;102410.94;;;6.01;95.18
28448;BME280;15675;52.870;-1.416;2023-03-03T00:31:32;102411.50;;;6.12;94.45
28448;BME280;15675;52.870;-1.416;2023-03-03T00:34:15;102412.31;;;6.29;94.66
28448;BME280;15675;52.870;-1.416;2023-03-03T00:36:45;102417.31;;;5.91;94.33
28448;BME280;15675;52.870;-1.416;2023-03-03T00:39:36;102408.38;;;6.01;94.14
28448;BME280;15675;52.870;-1.416;2023-03-03T00:42:13;102403.97;;;6.16;94.13
28448;BME280;15675;52.870;-1.416;2023-03-03T00:44:47;102410.59;;;6.29;93.24
28448;BME280;15675;52.870;-1.416;2023-03-03T00:52:36;102406.75;;;6.21;93.55
28448;BME280;15675;52.870;-1.416;2023-03-03T00:55:04;102411.06;;;6.20;93.25
28448;BME280;15675;52.870;-1.416;2023-03-03T00:57:30;102414.28;;;6.52;93.14
28448;BME280;15675;52.870;-1.416;2023-03-03T00:59:55;102410.56;;;6.65;91.84
28448;BME280;15675;52.870;-1.416;2023-03-03T01:02:21;102407.91;;;6.44;91.19
28448;BME280;15675;52.870;-1.416;2023-03-03T01:04:52;102412.16;;;6.44;92.31
28448;BME280;15675;52.870;-1.416;2023-03-03T01:07:17;102413.84;;;6.43;91.93
28448;BME280;15675;52.870;-1.416;2023-03-03T01:09:43;102408.97;;;6.31;92.27
28448;BME280;15675;52.870;-1.416;2023-03-03T01:12:10;102408.22;;;5.98;92.81
28448;BME280;15675;52.870;-1.416;2023-03-03T01:14:36;102414.78;;;5.75;95.37
28448;BME280;15675;52.870;-1.416;2023-03-03T01:17:02;102408.28;;;5.65;95.95
28448;BME280;15675;52.870;-1.416;2023-03-03T01:19:28;102414.47;;;5.68;95.21
28448;BME280;15675;52.870;-1.416;2023-03-03T01:21:53;102408.16;;;5.29;95.59
28448;BME280;15675;52.870;-1.416;2023-03-03T01:24:19;102415.94;;;5.47;96.49
28448;BME280;15675;52.870;-1.416;2023-03-03T01:26:44;102415.31;;;5.51;96.44
28448;BME280;15675;52.870;-1.416;2023-03-03T01:29:10;102428.47;;;5.57;96.63
28448;BME280;15675;52.870;-1.416;2023-03-03T01:31:35;102424.19;;;5.74;96.87
28448;BME280;15675;52.870;-1.416;2023-03-03T01:34:01;102426.81;;;5.58;96.54
28448;BME280;15675;52.870;-1.416;2023-03-03T01:36:27;102428.19;;;5.85;96.83
28448;BME280;15675;52.870;-1.416;2023-03-03T01:38:53;102428.59;;;5.59;96.57
28448;BME280;15675;52.870;-1.416;2023-03-03T01:41:19;102431.03;;;5.90;96.56
28448;BME280;15675;52.870;-1.416;2023-03-03T01:43:47;102429.75;;;5.82;96.29
28448;BME280;15675;52.870;-1.416;2023-03-03T01:48:48;102420.47;;;5.85;96.42
28448;BME280;15675;52.870;-1.416;2023-03-03T01:51:24;102433.06;;;5.79;96.09
28448;BME280;15675;52.870;-1.416;2023-03-03T01:53:58;102435.44;;;5.93;96.79
28448;BME280;15675;52.870;-1.416;2023-03-03T01:56:25;102431.63;;;5.68;95.71
28448;BME280;15675;52.870;-1.416;2023-03-03T01:59:03;102429.53;;;5.77;96.28
28448;BME280;15675;52.870;-1.416;2023-03-03T02:01:31;102428.53;;;5.75;96.50
28448;BME280;15675;52.870;-1.416;2023-03-03T02:03:57;102426.03;;;5.93;96.45
28448;BME280;15675;52.870;-1.416;2023-03-03T02:06:27;102428.81;;;5.63;95.66
28448;BME280;15675;52.870;-1.416;2023-03-03T02:09:04;102434.03;;;5.65;96.47
28448;BME280;15675;52.870;-1.416;2023-03-03T02:11:33;102431.97;;;5.41;97.78
28448;BME280;15675;52.870;-1.416;2023-03-03T02:14:01;102420.75;;;5.57;97.69
28448;BME280;15675;52.870;-1.416;2023-03-03T02:16:27;102421.81;;;5.61;97.78
28448;BME280;15675;52.870;-1.416;2023-03-03T02:18:53;102424.03;;;5.71;97.01
28448;BME280;15675;52.870;-1.416;2023-03-03T02:21:20;102422.25;;;5.70;96.63
28448;BME280;15675;52.870;-1.416;2023-03-03T02:26:29;102422.25;;;5.70;96.31
28448;BME280;15675;52.870;-1.416;2023-03-03T02:28:56;102419.59;;;5.85;96.10
28448;BME280;15675;52.870;-1.416;2023-03-03T02:31:24;102414.06;;;5.77;95.06
28448;BME280;15675;52.870;-1.416;2023-03-03T02:33:52;102418.34;;;5.95;94.39
28448;BME280;15675;52.870;-1.416;2023-03-03T02:36:21;102422.59;;;6.11;94.34
28448;BME280;15675;52.870;-1.416;2023-03-03T02:42:01;102419.81;;;6.06;94.42
28448;BME280;15675;52.870;-1.416;2023-03-03T02:44:31;102422.59;;;6.11;94.27
28448;BME280;15675;52.870;-1.416;2023-03-03T02:46:57;102421.88;;;5.97;94.16
28448;BME280;15675;52.870;-1.416;2023-03-03T02:49:28;102421.00;;;5.96;95.22
28448;BME280;15675;52.870;-1.416;2023-03-03T02:51:55;102422.25;;;6.03;95.65
28448;BME280;15675;52.870;-1.416;2023-03-03T02:54:22;102415.09;;;5.81;95.26
28448;BME280;15675;52.870;-1.416;2023-03-03T02:56:48;102417.16;;;6.04;96.07
28448;BME280;15675;52.870;-1.416;2023-03-03T02:59:14;102411.56;;;6.13;95.03
28448;BME280;15675;52.870;-1.416;2023-03-03T03:01:41;102422.03;;;6.16;94.73
28448;BME280;15675;52.870;-1.416;2023-03-03T03:04:19;102412.22;;;5.93;95.75
28448;BME280;15675;52.870;-1.416;2023-03-03T03:06:45;102415.63;;;5.92;96.05
28448;BME280;15675;52.870;-1.416;2023-03-03T03:09:12;102416.72;;;5.62;95.06
28448;BME280;15675;52.870;-1.416;2023-03-03T03:11:38;102423.28;;;5.39;95.90
28448;BME280;15675;52.870;-1.416;2023-03-03T03:14:05;102414.28;;;5.31;96.65
28448;BME280;15675;52.870;-1.416;2023-03-03T03:16:31;102421.31;;;5.51;96.90
28448;BME280;15675;52.870;-1.416;2023-03-03T03:18:58;102420.78;;;5.41;97.03
28448;BME280;15675;52.870;-1.416;2023-03-03T03:21:24;102422.31;;;5.37;96.96
28448;BME280;15675;52.870;-1.416;2023-03-03T03:23:49;102415.72;;;5.26;96.68
28448;BME280;15675;52.870;-1.416;2023-03-03T03:26:15;102422.47;;;5.07;96.86
28448;BME280;15675;52.870;-1.416;2023-03-03T03:28:41;102424.81;;;5.19;96.85
28448;BME280;15675;52.870;-1.416;2023-03-03T03:31:07;102417.72;;;5.31;97.22
28448;BME280;15675;52.870;-1.416;2023-03-03T03:33:34;102424.66;;;5.16;97.66
28448;BME280;15675;52.870;-1.416;2023-03-03T03:35:59;102412.91;;;5.05;97.95
28448;BME280;15675;52.870;-1.416;2023-03-03T03:38:26;102417.34;;;5.24;96.74
28448;BME280;15675;52.870;-1.416;2023-03-03T03:40:54;102417.91;;;5.34;97.16
28448;BME280;15675;52.870;-1.416;2023-03-03T03:43:19;102415.53;;;5.56;97.34
28448;BME280;15675;52.870;-1.416;2023-03-03T03:45:45;102419.16;;;5.59;96.90
28448;BME280;15675;52.870;-1.416;2023-03-03T03:48:11;102420.97;;;5.78;97.21
28448;BME280;15675;52.870;-1.416;2023-03-03T03:50:37;102415.53;;;5.56;95.68
28448;BME280;15675;52.870;-1.416;2023-03-03T03:53:04;102418.38;;;5.44;95.44
28448;BME280;15675;52.870;-1.416;2023-03-03T03:55:30;102412.72;;;5.67;96.48
28448;BME280;15675;52.870;-1.416;2023-03-03T03:57:56;102410.88;;;5.48;96.15
28448;BME280;15675;52.870;-1.416;2023-03-03T04:00:22;102408.88;;;5.43;95.71
28448;BME280;15675;52.870;-1.416;2023-03-03T04:02:47;102415.16;;;5.31;96.00
28448;BME280;15675;52.870;-1.416;2023-03-03T04:05:13;102413.38;;;5.47;94.82
28448;BME280;15675;52.870;-1.416;2023-03-03T04:07:39;102406.78;;;4.86;95.52
28448;BME280;15675;52.870;-1.416;2023-03-03T04:10:05;102415.88;;;5.12;96.63
28448;BME280;15675;52.870;-1.416;2023-03-03T04:12:30;102416.03;;;5.15;96.25
28448;BME280;15675;52.870;-1.416;2023-03-03T04:15:07;102416.28;;;5.20;95.83
28448;BME280;15675;52.870;-1.416;2023-03-03T04:17:33;102410.81;;;4.97;96.41
28448;BME280;15675;52.870;-1.416;2023-03-03T04:19:58;102410.06;;;5.33;97.35
28448;BME280;15675;52.870;-1.416;2023-03-03T04:22:25;102416.31;;;5.71;97.01
28448;BME280;15675;52.870;-1.416;2023-03-03T04:24:50;102413.53;;;5.50;96.04
28448;BME280;15675;52.870;-1.416;2023-03-03T04:27:16;102410.41;;;5.39;95.72
28448;BME280;15675;52.870;-1.416;2023-03-03T04:29:42;102408.16;;;5.29;94.95
28448;BME280;15675;52.870;-1.416;2023-03-03T04:32:07;102400.03;;;5.21;95.11
28448;BME280;15675;52.870;-1.416;2023-03-03T04:34:33;102409.38;;;5.19;95.48
28448;BME280;15675;52.870;-1.416;2023-03-03T04:36:59;102408.72;;;5.23;94.81
28448;BME280;15675;52.870;-1.416;2023-03-03T04:39:24;102413.22;;;5.44;95.78
28448;BME280;15675;52.870;-1.416;2023-03-03T04:41:51;102410.50;;;5.41;93.95
28448;BME280;15675;52.870;-1.416;2023-03-03T04:44:17;102408.22;;;5.63;93.12
28448;BME280;15675;52.870;-1.416;2023-03-03T04:46:42;102417.47;;;5.60;92.19
28448;BME280;15675;52.870;-1.416;2023-03-03T04:49:08;102414.94;;;5.10;93.46
28448;BME280;15675;52.870;-1.416;2023-03-03T04:51:34;102414.44;;;5.17;93.81
28448;BME280;15675;52.870;-1.416;2023-03-03T04:54:00;102411.63;;;5.46;92.67
28448;BME280;15675;52.870;-1.416;2023-03-03T04:56:26;102415.22;;;5.49;91.96
28448;BME280;15675;52.870;-1.416;2023-03-03T04:58:53;102420.63;;;5.21;91.33
28448;BME280;15675;52.870;-1.416;2023-03-03T05:01:18;102419.34;;;4.96;92.93
28448;BME280;15675;52.870;-1.416;2023-03-03T05:03:44;102431.41;;;4.97;92.81
28448;BME280;15675;52.870;-1.416;2023-03-03T05:06:10;102423.44;;;5.09;92.68
28448;BME280;15675;52.870;-1.416;2023-03-03T05:08:35;102422.16;;;5.17;92.18
28448;BME280;15675;52.870;-1.416;2023-03-03T05:11:02;102428.50;;;5.24;92.16
28448;BME280;15675;52.870;-1.416;2023-03-03T05:13:28;102415.31;;;5.18;91.34
28448;BME280;15675;52.870;-1.416;2023-03-03T05:15:55;102424.25;;;5.08;91.20
28448;BME280;15675;52.870;-1.416;2023-03-03T05:18:24;102423.56;;;4.96;91.11
28448;BME280;15675;52.870;-1.416;2023-03-03T05:20:51;102424.75;;;5.17;91.91
28448;BME280;15675;52.870;-1.416;2023-03-03T05:23:17;102426.88;;;5.10;91.85
28448;BME280;15675;52.870;-1.416;2023-03-03T05:25:46;102426.59;;;5.36;92.04
28448;BME280;15675;52.870;-1.416;2023-03-03T05:28:11;102424.09;;;5.22;91.74
28448;BME280;15675;52.870;-1.416;2023-03-03T05:30:37;102420.31;;;5.48;91.46
28448;BME280;15675;52.870;-1.416;2023-03-03T05:33:04;102418.78;;;5.35;90.11
28448;BME280;15675;52.870;-1.416;2023-03-03T05:35:30;102424.31;;;5.10;90.65
28448;BME280;15675;52.870;-1.416;2023-03-03T05:37:56;102422.13;;;5.01;91.83
28448;BME280;15675;52.870;-1.416;2023-03-03T05:40:24;102431.69;;;4.56;92.29
28448;BME280;15675;52.870;-1.416;2023-03-03T05:42:50;102429.94;;;4.86;93.67
28448;BME280;15675;52.870;-1.416;2023-03-03T05:45:17;102431.84;;;4.74;93.97
28448;BME280;15675;52.870;-1.416;2023-03-03T05:47:52;102428.94;;;4.84;93.01
28448;BME280;15675;52.870;-1.416;2023-03-03T05:50:19;102430.03;;;4.88;93.37
28448;BME280;15675;52.870;-1.416;2023-03-03T05:52:49;102433.97;;;5.14;92.74
28448;BME280;15675;52.870;-1.416;2023-03-03T05:55:15;102436.59;;;4.82;92.16
28448;BME280;15675;52.870;-1.416;2023-03-03T05:57:40;102428.56;;;4.93;92.12
28448;BME280;15675;52.870;-1.416;2023-03-03T06:00:06;102437.03;;;5.07;90.93
28448;BME280;15675;52.870;-1.416;2023-03-03T06:02:34;102437.59;;;5.01;90.89
28448;BME280;15675;52.870;-1.416;2023-03-03T06:04:59;102434.41;;;4.74;91.46
28448;BME280;15675;52.870;-1.416;2023-03-03T06:07:25;102444.63;;;4.89;92.32
28448;BME280;15675;52.870;-1.416;2023-03-03T06:09:51;102438.41;;;5.16;91.29
28448;BME280;15675;52.870;-1.416;2023-03-03T06:12:16;102438.16;;;5.28;90.33
28448;BME280;15675;52.870;-1.416;2023-03-03T06:14:42;102426.72;;;5.07;90.45
28448;BME280;15675;52.870;-1.416;2023-03-03T06:17:07;102428.44;;;5.23;90.11
28448;BME280;15675;52.870;-1.416;2023-03-03T06:19:33;102431.28;;;4.79;90.00
28448;BME280;15675;52.870;-1.416;2023-03-03T06:21:59;102436.56;;;4.66;90.93
28448;BME280;15675;52.870;-1.416;2023-03-03T06:24:24;102442.34;;;4.62;91.20
28448;BME280;15675;52.870;-1.416;2023-03-03T06:26:55;102433.09;;;4.65;91.39
28448;BME280;15675;52.870;-1.416;2023-03-03T06:29:21;102431.84;;;4.59;92.33
28448;BME280;15675;52.870;-1.416;2023-03-03T06:31:46;102436.28;;;4.61;91.14
28448;BME280;15675;52.870;-1.416;2023-03-03T06:34:12;102432.78;;;4.76;89.71
28448;BME280;15675;52.870;-1.416;2023-03-03T06:36:37;102445.16;;;4.66;90.22
28448;BME280;15675;52.870;-1.416;2023-03-03T06:39:03;102448.19;;;4.59;91.22
28448;BME280;15675;52.870;-1.416;2023-03-03T06:41:28;102446.66;;;4.63;91.22
28448;BME280;15675;52.870;-1.416;2023-03-03T06:43:54;102453.00;;;4.38;92.27
28448;BME280;15675;52.870;-1.416;2023-03-03T06:46:20;102455.78;;;4.73;92.78
28448;BME280;15675;52.870;-1.416;2023-03-03T06:48:45;102456.78;;;4.75;92.25
28448;BME280;15675;52.870;-1.416;2023-03-03T06:51:21;102468.16;;;4.63;91.32
28448;BME280;15675;52.870;-1.416;2023-03-03T06:53:50;102464.09;;;4.83;90.88
28448;BME280;15675;52.870;-1.416;2023-03-03T06:56:17;102461.28;;;4.79;90.28
28448;BME280;15675;52.870;-1.416;2023-03-03T06:58:43;102472.50;;;4.49;90.42
28448;BME280;15675;52.870;-1.416;2023-03-03T07:01:16;102475.44;;;4.41;90.22
28448;BME280;15675;52.870;-1.416;2023-03-03T07:03:42;102473.38;;;4.65;91.04
28448;BME280;15675;52.870;-1.416;2023-03-03T07:06:18;102473.34;;;4.34;91.04
28448;BME280;15675;52.870;-1.416;2023-03-03T07:08:45;102484.78;;;4.24;91.11
28448;BME280;15675;52.870;-1.416;2023-03-03T07:11:16;102471.53;;;4.47;90.86
28448;BME280;15675;52.870;-1.416;2023-03-03T07:13:53;102483.34;;;4.44;90.00
28448;BME280;15675;52.870;-1.416;2023-03-03T07:16:24;102486.94;;;4.47;89.36
28448;BME280;15675;52.870;-1.416;2023-03-03T07:23:47;102485.75;;;4.41;89.96
28448;BME280;15675;52.870;-1.416;2023-03-03T07:26:19;102491.94;;;4.14;91.20
28448;BME280;15675;52.870;-1.416;2023-03-03T07:28:55;102489.19;;;4.41;92.02
28448;BME280;15675;52.870;-1.416;2023-03-03T07:31:56;102509.47;;;4.22;91.31
28448;BME280;15675;52.870;-1.416;2023-03-03T07:34:22;102492.47;;;4.39;92.32
28448;BME280;15675;52.870;-1.416;2023-03-03T07:36:51;102499.56;;;4.58;92.24
28448;BME280;15675;52.870;-1.416;2023-03-03T07:39:27;102501.13;;;4.56;91.79
28448;BME280;15675;52.870;-1.416;2023-03-03T07:44:44;102502.00;;;4.71;92.02
28448;BME280;15675;52.870;-1.416;2023-03-03T07:49:59;102507.78;;;4.67;90.15
28448;BME280;15675;52.870;-1.416;2023-03-03T07:54:55;102506.38;;;4.57;91.71
28448;BME280;15675;52.870;-1.416;2023-03-03T08:02:26;102512.88;;;4.51;91.57
28448;BME280;15675;52.870;-1.416;2023-03-03T08:04:54;102516.41;;;4.68;91.74
28448;BME280;15675;52.870;-1.416;2023-03-03T08:07:21;102517.84;;;4.32;92.85
28448;BME280;15675;52.870;-1.416;2023-03-03T08:10:00;102525.63;;;4.34;91.88
28448;BME280;15675;52.870;-1.416;2023-03-03T08:12:36;102517.66;;;4.59;92.48
28448;BME280;15675;52.870;-1.416;2023-03-03T08:15:35;102512.28;;;4.86;91.62
28448;BME280;15675;52.870;-1.416;2023-03-03T08:18:01;102528.72;;;4.58;91.66
28448;BME280;15675;52.870;-1.416;2023-03-03T08:23:08;102525.06;;;4.84;91.64
28448;BME280;15675;52.870;-1.416;2023-03-03T08:25:33;102528.72;;;4.73;91.83
28448;BME280;15675;52.870;-1.416;2023-03-03T08:27:59;102529.44;;;4.56;91.56
28448;BME280;15675;52.870;-1.416;2023-03-03T08:30:24;102534.56;;;4.56;91.31
28448;BME280;15675;52.870;-1.416;2023-03-03T08:32:50;102535.63;;;4.74;91.37
28448;BME280;15675;52.870;-1.416;2023-03-03T08:35:15;102542.38;;;4.72;90.61
28448;BME280;15675;52.870;-1.416;2023-03-03T08:37:41;102531.31;;;5.05;89.73
28448;BME280;15675;52.870;-1.416;2023-03-03T08:40:07;102545.75;;;5.17;89.71
28448;BME280;15675;52.870;-1.416;2023-03-03T08:42:33;102539.34;;;5.42;88.60
28448;BME280;15675;52.870;-1.416;2023-03-03T08:44:59;102540.41;;;5.14;88.53
28448;BME280;15675;52.870;-1.416;2023-03-03T08:47:24;102534.44;;;5.30;87.74
28448;BME280;15675;52.870;-1.416;2023-03-03T08:49:50;102536.66;;;5.24;87.29
28448;BME280;15675;52.870;-1.416;2023-03-03T08:52:16;102532.13;;;4.89;87.91
28448;BME280;15675;52.870;-1.416;2023-03-03T08:54:41;102540.53;;;5.01;88.05
28448;BME280;15675;52.870;-1.416;2023-03-03T08:57:07;102541.56;;;4.88;87.93
28448;BME280;15675;52.870;-1.416;2023-03-03T08:59:32;102539.91;;;5.05;87.36
28448;BME280;15675;52.870;-1.416;2023-03-03T09:02:02;102549.38;;;4.60;87.78
28448;BME280;15675;52.870;-1.416;2023-03-03T09:04:27;102543.13;;;5.01;89.22
28448;BME280;15675;52.870;-1.416;2023-03-03T09:06:53;102539.84;;;5.20;89.42
28448;BME280;15675;52.870;-1.416;2023-03-03T09:09:18;102541.78;;;5.08;88.73
28448;BME280;15675;52.870;-1.416;2023-03-03T09:11:44;102548.22;;;4.84;88.87
28448;BME280;15675;52.870;-1.416;2023-03-03T09:14:12;102545.38;;;4.80;88.78
28448;BME280;15675;52.870;-1.416;2023-03-03T09:16:41;102548.16;;;4.68;89.17
28448;BME280;15675;52.870;-1.416;2023-03-03T09:19:29;102557.28;;;4.78;89.12
28448;BME280;15675;52.870;-1.416;2023-03-03T09:22:21;102553.25;;;4.83;89.09
28448;BME280;15675;52.870;-1.416;2023-03-03T09:24:48;102553.00;;;4.78;89.09
28448;BME280;15675;52.870;-1.416;2023-03-03T09:27:21;102548.13;;;4.83;89.46
28448;BME280;15675;52.870;-1.416;2023-03-03T09:29:49;102550.34;;;4.92;89.02
28448;BME280;15675;52.870;-1.416;2023-03-03T09:32:23;102559.97;;;5.11;89.33
28448;BME280;15675;52.870;-1.416;2023-03-03T09:34:51;102554.97;;;5.14;87.98
28448;BME280;15675;52.870;-1.416;2023-03-03T09:37:20;102564.22;;;4.79;88.04
28448;BME280;15675;52.870;-1.416;2023-03-03T09:39:49;102565.50;;;4.87;88.58
28448;BME280;15675;52.870;-1.416;2023-03-03T09:50:43;102555.38;;;4.90;89.11
28448;BME280;15675;52.870;-1.416;2023-03-03T09:53:41;102561.75;;;5.12;90.31
28448;BME280;15675;52.870;-1.416;2023-03-03T09:56:20;102561.91;;;5.15;90.72
28448;BME280;15675;52.870;-1.416;2023-03-03T09:59:22;102556.44;;;5.25;90.79
28448;BME280;15675;52.870;-1.416;2023-03-03T10:01:59;102559.81;;;5.24;90.07
28448;BME280;15675;52.870;-1.416;2023-03-03T10:04:50;102566.31;;;5.65;88.51
28448;BME280;15675;52.870;-1.416;2023-03-03T10:07:24;102565.09;;;5.42;87.83
28448;BME280;15675;52.870;-1.416;2023-03-03T10:15:14;102561.25;;;5.67;86.71
28448;BME280;15675;52.870;-1.416;2023-03-03T10:22:51;102568.00;;;5.48;84.11
28448;BME280;15675;52.870;-1.416;2023-03-03T10:25:37;102573.31;;;5.35;83.24
28448;BME280;15675;52.870;-1.416;2023-03-03T10:42:36;102569.53;;;5.61;84.92
28448;BME280;15675;52.870;-1.416;2023-03-03T10:48:31;102556.34;;;6.21;82.63
28448;BME280;15675;52.870;-1.416;2023-03-03T10:54:05;102566.72;;;5.90;82.38
28448;BME280;15675;52.870;-1.416;2023-03-03T11:02:15;102568.91;;;5.65;83.18
28448;BME280;15675;52.870;-1.416;2023-03-03T11:07:27;102570.00;;;6.02;84.13
28448;BME280;15675;52.870;-1.416;2023-03-03T11:15:35;102564.16;;;6.22;83.73
28448;BME280;15675;52.870;-1.416;2023-03-03T11:24:05;102573.59;;;6.22;84.68
28448;BME280;15675;52.870;-1.416;2023-03-03T11:32:49;102570.28;;;5.92;85.11
28448;BME280;15675;52.870;-1.416;2023-03-03T11:35:28;102578.16;;;5.78;88.73
28448;BME280;15675;52.870;-1.416;2023-03-03T11:38:21;102579.78;;;5.93;90.21
28448;BME280;15675;52.870;-1.416;2023-03-03T11:40:56;102584.13;;;5.61;89.55
28448;BME280;15675;52.870;-1.416;2023-03-03T11:43:31;102588.78;;;5.68;89.57
28448;BME280;15675;52.870;-1.416;2023-03-03T11:46:04;102584.84;;;5.58;88.88
28448;BME280;15675;52.870;-1.416;2023-03-03T11:48:52;102594.28;;;5.58;89.26
28448;BME280;15675;52.870;-1.416;2023-03-03T11:56:45;102591.34;;;5.99;82.32
28448;BME280;15675;52.870;-1.416;2023-03-03T12:02:03;102587.53;;;6.09;82.17
28448;BME280;15675;52.870;-1.416;2023-03-03T12:04:38;102591.56;;;6.04;83.67
28448;BME280;15675;52.870;-1.416;2023-03-03T12:07:25;102590.63;;;6.02;83.58
28448;BME280;15675;52.870;-1.416;2023-03-03T12:10:02;102590.06;;;6.08;83.06
28448;BME280;15675;52.870;-1.416;2023-03-03T12:12:39;102590.28;;;6.12;82.08
28448;BME280;15675;52.870;-1.416;2023-03-03T12:20:58;102594.59;;;5.97;81.97
28448;BME280;15675;52.870;-1.416;2023-03-03T12:29:25;102597.63;;;6.04;82.54
28448;BME280;15675;52.870;-1.416;2023-03-03T12:32:02;102590.63;;;6.02;84.53
28448;BME280;15675;52.870;-1.416;2023-03-03T12:34:40;102595.22;;;6.08;85.17
28448;BME280;15675;52.870;-1.416;2023-03-03T12:40:09;102596.72;;;6.20;84.35
28448;BME280;15675;52.870;-1.416;2023-03-03T12:45:45;102583.41;;;6.64;83.39
28448;BME280;15675;52.870;-1.416;2023-03-03T12:48:58;102583.03;;;6.74;83.67
28448;BME280;15675;52.870;-1.416;2023-03-03T12:54:15;102576.50;;;6.12;83.98
28448;BME280;15675;52.870;-1.416;2023-03-03T12:56:54;102578.47;;;6.34;82.80
28448;BME280;15675;52.870;-1.416;2023-03-03T12:59:43;102566.41;;;6.33;82.63
28448;BME280;15675;52.870;-1.416;2023-03-03T13:07:42;102566.22;;;6.82;82.95
28448;BME280;15675;52.870;-1.416;2023-03-03T13:13:10;102553.84;;;6.75;81.11
28448;BME280;15675;52.870;-1.416;2023-03-03T13:21:17;102558.63;;;6.49;83.15
28448;BME280;15675;52.870;-1.416;2023-03-03T13:24:15;102554.19;;;6.47;82.16
28448;BME280;15675;52.870;-1.416;2023-03-03T13:26:48;102546.59;;;7.04;80.21
28448;BME280;15675;52.870;-1.416;2023-03-03T13:31:49;102535.59;;;7.26;79.29
28448;BME280;15675;52.870;-1.416;2023-03-03T13:34:25;102540.91;;;7.11;79.47
28448;BME280;15675;52.870;-1.416;2023-03-03T13:36:59;102532.75;;;7.39;79.10
28448;BME280;15675;52.870;-1.416;2023-03-03T13:39:34;102521.66;;;7.42;77.74
28448;BME280;15675;52.870;-1.416;2023-03-03T13:42:08;102519.50;;;7.51;77.12
28448;BME280;15675;52.870;-1.416;2023-03-03T13:44:45;102522.78;;;7.47;77.08
28448;BME280;15675;52.870;-1.416;2023-03-03T13:47:35;102516.69;;;7.27;76.54
28448;BME280;15675;52.870;-1.416;2023-03-03T13:53:08;102518.19;;;8.00;76.59
28448;BME280;15675;52.870;-1.416;2023-03-03T13:55:44;102510.09;;;8.13;73.59
28448;BME280;15675;52.870;-1.416;2023-03-03T14:01:17;102515.13;;;7.89;73.56
28448;BME280;15675;52.870;-1.416;2023-03-03T14:03:48;102517.44;;;7.64;72.52
28448;BME280;15675;52.870;-1.416;2023-03-03T14:06:22;102512.28;;;7.64;73.25
28448;BME280;15675;52.870;-1.416;2023-03-03T14:09:11;102514.66;;;7.39;72.95
28448;BME280;15675;52.870;-1.416;2023-03-03T14:11:45;102520.19;;;7.47;72.63
28448;BME280;15675;52.870;-1.416;2023-03-03T14:22:53;102504.03;;;8.33;69.75
28448;BME280;15675;52.870;-1.416;2023-03-03T14:25:21;102510.22;;;7.95;69.37
28448;BME280;15675;52.870;-1.416;2023-03-03T14:38:21;102495.69;;;8.40;71.40
28448;BME280;15675;52.870;-1.416;2023-03-03T14:40:48;102501.78;;;9.29;74.78
28448;BME280;15675;52.870;-1.416;2023-03-03T14:43:39;102490.56;;;8.84;68.75
28448;BME280;15675;52.870;-1.416;2023-03-03T14:46:34;102486.84;;;9.00;67.25
28448;BME280;15675;52.870;-1.416;2023-03-03T14:49:15;102490.25;;;8.55;68.43
28448;BME280;15675;52.870;-1.416;2023-03-03T14:51:53;102491.88;;;8.51;68.30
28448;BME280;15675;52.870;-1.416;2023-03-03T14:54:27;102481.81;;;8.59;68.40
28448;BME280;15675;52.870;-1.416;2023-03-03T14:59:26;102476.97;;;8.89;68.54
28448;BME280;15675;52.870;-1.416;2023-03-03T15:04:42;102475.84;;;8.19;68.77
28448;BME280;15675;52.870;-1.416;2023-03-03T15:07:34;102465.97;;;8.51;68.43
28448;BME280;15675;52.870;-1.416;2023-03-03T15:10:02;102469.13;;;8.44;69.01
28448;BME280;15675;52.870;-1.416;2023-03-03T15:17:42;102460.16;;;8.36;69.96
28448;BME280;15675;52.870;-1.416;2023-03-03T15:20:12;102451.34;;;8.09;70.72
28448;BME280;15675;52.870;-1.416;2023-03-03T15:25:53;102460.47;;;8.01;70.42
28448;BME280;15675;52.870;-1.416;2023-03-03T15:28:58;102465.38;;;7.54;71.23
28448;BME280;15675;52.870;-1.416;2023-03-03T15:36:56;102461.25;;;7.79;72.51
28448;BME280;15675;52.870;-1.416;2023-03-03T15:42:20;102448.38;;;7.81;74.09
28448;BME280;15675;52.870;-1.416;2023-03-03T15:58:32;102450.66;;;7.73;74.37
28448;BME280;15675;52.870;-1.416;2023-03-03T16:03:56;102453.13;;;7.70;74.44
28448;BME280;15675;52.870;-1.416;2023-03-03T16:09:45;102455.59;;;7.88;74.73
28448;BME280;15675;52.870;-1.416;2023-03-03T16:15:13;102456.03;;;7.77;75.69
28448;BME280;15675;52.870;-1.416;2023-03-03T16:17:43;102455.72;;;7.70;76.87
28448;BME280;15675;52.870;-1.416;2023-03-03T16:23:26;102449.06;;;7.76;77.41
28448;BME280;15675;52.870;-1.416;2023-03-03T16:32:09;102444.50;;;7.90;77.21
28448;BME280;15675;52.870;-1.416;2023-03-03T16:34:44;102459.47;;;7.78;77.66
28448;BME280;15675;52.870;-1.416;2023-03-03T16:37:30;102459.00;;;7.87;76.07
28448;BME280;15675;52.870;-1.416;2023-03-03T16:42:39;102447.88;;;7.89;70.38
28448;BME280;15675;52.870;-1.416;2023-03-03T17:06:17;102459.00;;;8.29;68.94
28448;BME280;15675;52.870;-1.416;2023-03-03T17:09:09;102452.50;;;8.18;69.10
28448;BME280;15675;52.870;-1.416;2023-03-03T17:11:58;102453.72;;;8.05;69.61
28448;BME280;15675;52.870;-1.416;2023-03-03T17:14:30;102459.00;;;8.08;69.85
28448;BME280;15675;52.870;-1.416;2023-03-03T17:20:22;102470.75;;;8.00;71.20
28448;BME280;15675;52.870;-1.416;2023-03-03T17:28:48;102485.88;;;7.90;72.95